createdAt,value
2022-09-10T00:00:38.282Z,16.80
2022-09-10T00:05:44.671Z,16.70
2022-09-10T00:10:49.337Z,16.70
2022-09-10T00:15:54.175Z,16.60
2022-09-10T00:20:59.487Z,16.60
2022-09-10T00:26:11.240Z,16.60
2022-09-10T00:31:14.148Z,16.50
2022-09-10T00:36:20.734Z,16.50
2022-09-10T00:41:24.871Z,16.40
2022-09-10T00:46:36.135Z,16.40
2022-09-10T00:51:41.086Z,16.40
2022-09-10T00:56:43.832Z,16.40
2022-09-10T01:01:47.750Z,16.40
2022-09-10T01:06:52.089Z,16.40
2022-09-10T01:12:10.938Z,16.50
2022-09-10T01:17:25.597Z,16.60
2022-09-10T01:22:48.021Z,16.60
2022-09-10T01:27:54.853Z,16.60
2022-09-10T01:33:05.129Z,16.60
2022-09-10T01:38:12.785Z,16.60
2022-09-10T01:43:16.938Z,16.60
2022-09-10T01:48:51.708Z,16.60
2022-09-10T01:54:08.611Z,16.60
2022-09-10T01:59:23.417Z,16.60
2022-09-10T02:04:28.064Z,16.60
2022-09-10T02:09:30.615Z,16.60
2022-09-10T02:14:34.713Z,16.60
2022-09-10T02:19:37.895Z,16.60
2022-09-10T02:24:40.815Z,16.70
2022-09-10T02:29:45.019Z,16.70
2022-09-10T02:34:47.631Z,16.70
2022-09-10T02:39:50.165Z,16.70
2022-09-10T02:44:54.362Z,16.70
2022-09-10T02:49:57.271Z,16.70
2022-09-10T02:55:01.273Z,16.70
2022-09-10T03:00:06.985Z,16.70
2022-09-10T03:05:10.286Z,16.80
2022-09-10T03:10:12.854Z,16.70
2022-09-10T03:15:17.164Z,16.70
2022-09-10T03:20:19.928Z,16.70
2022-09-10T03:25:22.905Z,16.70
2022-09-10T03:30:27.218Z,16.70
2022-09-10T03:35:29.824Z,16.70
2022-09-10T03:40:32.685Z,16.70
2022-09-10T03:45:37.156Z,16.70
2022-09-10T03:50:40.063Z,16.70
2022-09-10T03:55:44.291Z,16.70
2022-09-10T04:00:49.130Z,16.80
2022-09-10T04:05:52.064Z,16.70
2022-09-10T04:10:55.270Z,16.80
2022-09-10T04:15:59.601Z,16.80
2022-09-10T04:21:02.499Z,16.80
2022-09-10T04:26:13.023Z,16.80
2022-09-10T04:31:17.769Z,16.80
2022-09-10T04:36:24.788Z,16.80
2022-09-10T04:41:27.988Z,16.80
2022-09-10T04:46:32.552Z,16.90
2022-09-10T04:51:35.612Z,16.80
2022-09-10T04:56:38.697Z,16.90
2022-09-10T05:01:43.638Z,16.90
2022-09-10T05:06:46.365Z,16.90
2022-09-10T05:11:49.335Z,16.90
2022-09-10T05:16:53.718Z,16.90
2022-09-10T05:21:56.639Z,16.90
2022-09-10T05:27:06.910Z,16.90
2022-09-10T05:32:12.182Z,17.00
2022-09-10T05:37:25.721Z,17.00
2022-09-10T05:43:00.457Z,17.10
2022-09-10T05:48:20.373Z,17.10
2022-09-10T05:53:53.679Z,17.20
2022-09-10T05:58:59.739Z,17.20
2022-09-10T06:04:04.913Z,17.30
2022-09-10T06:09:14.817Z,17.30
2022-09-10T06:14:18.233Z,17.40
2022-09-10T06:19:23.275Z,17.40
2022-09-10T06:24:28.600Z,17.50
2022-09-10T06:29:50.647Z,17.50
2022-09-10T06:34:55.352Z,17.60
2022-09-10T06:39:58.566Z,17.70
2022-09-10T06:45:02.451Z,17.70
2022-09-10T06:50:09.207Z,17.80
2022-09-10T06:55:12.076Z,17.90
2022-09-10T07:00:16.361Z,17.90
2022-09-10T07:05:21.264Z,18.00
2022-09-10T07:10:24.714Z,18.00
2022-09-10T07:15:27.607Z,18.10
2022-09-10T07:20:32.686Z,18.10
2022-09-10T07:25:41.556Z,18.20
2022-09-10T07:30:47.355Z,18.20
2022-09-10T07:35:51.574Z,18.30
2022-09-10T07:40:54.077Z,18.40
2022-09-10T07:45:58.295Z,18.50
2022-09-10T07:51:06.453Z,18.50
2022-09-10T07:56:09.310Z,18.60
2022-09-10T08:01:13.003Z,18.60
2022-09-10T08:06:17.956Z,18.60
2022-09-10T08:11:21.885Z,18.80
2022-09-10T08:16:26.027Z,18.80
2022-09-10T08:21:40.319Z,18.90
2022-09-10T08:26:43.003Z,19.00
2022-09-10T08:31:45.532Z,19.10
2022-09-10T08:36:49.782Z,19.30
2022-09-10T08:41:56.864Z,19.40
2022-09-10T08:47:02.112Z,19.60
2022-09-10T08:52:18.752Z,19.80
2022-09-10T08:57:27.335Z,19.90
2022-09-10T09:02:48.858Z,20.10
2022-09-10T09:07:54.835Z,20.20
2022-09-10T09:13:17.897Z,20.40
2022-09-10T09:18:34.717Z,20.50
2022-09-10T09:24:11.846Z,20.60
2022-09-10T09:29:17.729Z,20.70
2022-09-10T09:34:27.906Z,20.70
2022-09-10T09:39:39.503Z,20.70
2022-09-10T09:44:48.814Z,20.70
2022-09-10T09:49:51.399Z,20.80
2022-09-10T09:55:14.449Z,20.80
2022-09-10T10:00:36.057Z,20.90
2022-09-10T10:05:39.818Z,21.00
2022-09-10T10:10:44.561Z,21.00
2022-09-10T10:15:47.507Z,21.00
2022-09-10T10:21:06.681Z,21.10
2022-09-10T10:26:27.082Z,21.30
2022-09-10T10:31:39.932Z,21.60
2022-09-10T10:36:56.040Z,22.10
2022-09-10T10:42:08.306Z,22.90
2022-09-10T10:47:25.568Z,23.80
2022-09-10T10:52:37.776Z,24.90
2022-09-10T10:58:04.383Z,26.00
2022-09-10T11:03:15.621Z,26.70
2022-09-10T11:08:25.676Z,27.00
2022-09-10T11:13:39.765Z,27.00
2022-09-10T11:18:47.221Z,26.90
2022-09-10T11:23:56.509Z,26.90
2022-09-10T11:29:21.416Z,26.80
2022-09-10T11:34:32.738Z,26.70
2022-09-10T11:39:38.665Z,26.60
2022-09-10T11:44:56.607Z,26.60
2022-09-10T11:50:06.019Z,26.30
2022-09-10T11:55:15.782Z,26.00
2022-09-10T12:00:20.975Z,26.00
2022-09-10T12:05:31.594Z,25.90
2022-09-10T12:10:42.741Z,26.00
2022-09-10T12:15:54.735Z,26.40
2022-09-10T12:21:08.719Z,27.10
2022-09-10T12:26:13.641Z,27.80
2022-09-10T12:31:19.283Z,28.20
2022-09-10T12:36:55.217Z,28.50
2022-09-10T12:42:02.070Z,28.70
2022-09-10T12:47:40.571Z,28.70
2022-09-10T12:52:54.500Z,28.50
2022-09-10T12:58:04.469Z,28.20
2022-09-10T13:03:16.555Z,27.80
2022-09-10T13:08:23.274Z,27.30
2022-09-10T13:13:39.940Z,27.00
2022-09-10T13:18:44.713Z,26.60
2022-09-10T13:23:48.204Z,26.20
2022-09-10T13:29:05.103Z,25.90
2022-09-10T13:34:33.764Z,25.60
2022-09-10T13:40:14.608Z,25.70
2022-09-10T13:45:24.478Z,26.00
2022-09-10T13:50:34.949Z,26.20
2022-09-10T13:55:38.562Z,26.50
2022-09-10T14:00:49.186Z,26.80
2022-09-10T14:05:56.521Z,27.00
2022-09-10T14:11:01.370Z,27.20
2022-09-10T14:16:08.679Z,27.30
2022-09-10T14:21:15.553Z,27.30
2022-09-10T14:26:20.445Z,27.10
2022-09-10T14:31:30.554Z,26.90
2022-09-10T14:36:35.255Z,26.70
2022-09-10T14:41:37.796Z,26.40
2022-09-10T14:46:48.882Z,26.10
2022-09-10T14:51:53.086Z,25.90
2022-09-10T14:56:57.850Z,25.70
2022-09-10T15:02:01.699Z,25.60
2022-09-10T15:07:06.113Z,25.50
2022-09-10T15:12:12.980Z,25.20
2022-09-10T15:17:16.554Z,24.90
2022-09-10T15:22:23.790Z,24.70
2022-09-10T15:27:26.167Z,24.60
2022-09-10T15:32:28.503Z,24.60
2022-09-10T15:37:32.425Z,24.60
2022-09-10T15:42:35.096Z,24.60
2022-09-10T15:47:37.851Z,24.60
2022-09-10T15:52:41.710Z,24.70
2022-09-10T15:57:44.169Z,24.60
2022-09-10T16:02:50.902Z,24.40
2022-09-10T16:07:54.834Z,24.20
2022-09-10T16:12:57.188Z,24.20
2022-09-10T16:18:01.772Z,24.20
2022-09-10T16:23:06.586Z,24.00
2022-09-10T16:28:09.285Z,23.90
2022-09-10T16:33:11.842Z,23.90
2022-09-10T16:38:19.228Z,23.90
2022-09-10T16:43:24.153Z,23.90
2022-09-10T16:48:37.436Z,23.80
2022-09-10T16:53:47.524Z,23.70
2022-09-10T16:58:55.122Z,23.60
2022-09-10T17:03:58.644Z,23.50
2022-09-10T17:09:04.239Z,23.40
2022-09-10T17:14:06.675Z,23.30
2022-09-10T17:19:12.602Z,23.20
2022-09-10T17:24:24.061Z,23.10
2022-09-10T17:29:27.504Z,23.00
2022-09-10T17:34:33.153Z,22.90
2022-09-10T17:39:39.029Z,22.80
2022-09-10T17:44:51.687Z,22.70
2022-09-10T17:49:55.448Z,22.60
2022-09-10T17:55:00.377Z,22.40
2022-09-10T18:00:16.794Z,22.30
2022-09-10T18:05:19.492Z,22.10
2022-09-10T18:10:23.955Z,22.00
2022-09-10T18:15:34.130Z,21.80
2022-09-10T18:20:36.963Z,21.70
2022-09-10T18:25:41.128Z,21.60
2022-09-10T18:30:43.721Z,21.40
2022-09-10T18:35:46.431Z,21.40
2022-09-10T18:40:50.160Z,21.20
2022-09-10T18:45:52.909Z,21.20
2022-09-10T18:50:55.466Z,21.10
2022-09-10T18:56:05.356Z,21.00
2022-09-10T19:01:10.121Z,20.80
2022-09-10T19:06:15.006Z,20.70
2022-09-10T19:11:19.934Z,20.50
2022-09-10T19:16:25.585Z,20.40
2022-09-10T19:21:30.353Z,20.30
2022-09-10T19:26:35.052Z,20.20
2022-09-10T19:31:38.919Z,20.10
2022-09-10T19:36:41.669Z,20.00
2022-09-10T19:41:46.427Z,19.90
2022-09-10T19:46:49.002Z,19.80
2022-09-10T19:51:51.862Z,19.70
2022-09-10T19:56:55.903Z,19.60
2022-09-10T20:01:58.375Z,19.50
2022-09-10T20:07:01.415Z,19.40
2022-09-10T20:12:05.587Z,19.30
2022-09-10T20:17:08.191Z,19.20
2022-09-10T20:22:10.968Z,19.10
2022-09-10T20:27:14.780Z,19.10
2022-09-10T20:32:17.541Z,19.00
2022-09-10T20:37:19.852Z,18.90
2022-09-10T20:42:24.475Z,18.80
2022-09-10T20:47:27.080Z,18.70
2022-09-10T20:52:29.582Z,18.70
2022-09-10T20:57:33.767Z,18.60
2022-09-10T21:02:36.486Z,18.50
2022-09-10T21:07:39.048Z,18.50
2022-09-10T21:12:43.285Z,18.40
2022-09-10T21:17:47.742Z,18.40
2022-09-10T21:22:50.409Z,18.30
2022-09-10T21:27:54.823Z,18.30
2022-09-10T21:32:57.387Z,18.20
2022-09-10T21:38:00.087Z,18.20
2022-09-10T21:43:03.760Z,18.10
2022-09-10T21:48:06.117Z,18.10
2022-09-10T21:53:08.425Z,18.10
2022-09-10T21:58:12.955Z,18.00
2022-09-10T22:03:15.592Z,17.90
2022-09-10T22:08:17.891Z,17.90
2022-09-10T22:13:21.754Z,17.80
2022-09-10T22:18:24.588Z,17.80
2022-09-10T22:23:29.140Z,17.70
2022-09-10T22:28:34.976Z,17.70
2022-09-10T22:33:38.210Z,17.60
2022-09-10T22:38:40.753Z,17.60
2022-09-10T22:43:44.852Z,17.50
2022-09-10T22:48:47.541Z,17.50
2022-09-10T22:53:52.538Z,17.40
2022-09-10T22:58:58.367Z,17.30
2022-09-10T23:04:02.079Z,17.30
2022-09-10T23:09:06.841Z,17.20
2022-09-10T23:14:13.692Z,17.10
2022-09-10T23:19:18.569Z,17.00
2022-09-10T23:24:22.395Z,16.90
2022-09-10T23:29:26.020Z,16.80
2022-09-10T23:34:28.365Z,16.80
2022-09-10T23:39:30.592Z,16.70
2022-09-10T23:44:34.291Z,16.70
2022-09-10T23:49:36.408Z,16.80
2022-09-10T23:54:38.641Z,16.70
2022-09-10T23:59:42.508Z,16.70
